Time;durP1;ratioP1;P1;durP2;ratioP2;P2;SDS_P1;SDS_P2;PMS_P1;PMS_P2;Temp;Humidity;BMP_temperature;BMP_pressure;BME280_temperature;BME280_humidity;BME280_pressure;Samples;Min_cycle;Max_cycle;Signal;HPM_P1;HPM_P2
2023/06/15 04:05:25;;;;;;;3.20;2.90;;;15.20;99.90;;;;;;5516052;23;20851;-62
2023/06/15 04:07:51;;;;;;;3.10;2.90;;;15.20;99.50;;;;;;4994826;28;20410;-61
2023/06/15 04:10:16;;;;;;;3.00;2.70;;;15.30;99.30;;;;;;4994996;28;20171;-62
2023/06/15 04:12:42;;;;;;;2.97;2.77;;;15.30;99.10;;;;;;4994929;28;20406;-62
2023/06/15 04:15:08;;;;;;;3.40;3.17;;;15.40;98.90;;;;;;4994419;28;20202;-62
2023/06/15 04:17:35;;;;;;;2.80;2.60;;;15.50;98.40;;;;;;4994960;28;20390;-63
2023/06/15 04:20:02;;;;;;;4.07;3.67;;;15.60;98.20;;;;;;4994762;28;20398;-63
2023/06/15 04:22:28;;;;;;;3.37;3.10;;;15.80;97.90;;;;;;4994730;28;20409;-63
2023/06/15 04:24:53;;;;;;;3.67;3.43;;;16.00;97.70;;;;;;4992921;28;20446;-61
2023/06/15 04:27:19;;;;;;;4.23;3.13;;;16.30;97.60;;;;;;4994283;28;20168;-64
2023/06/15 04:29:45;;;;;;;3.47;3.23;;;16.60;97.20;;;;;;4994507;28;20175;-61
2023/06/15 04:32:14;;;;;;;3.80;3.50;;;16.80;96.60;;;;;;4993233;28;20465;-63
2023/06/15 04:34:45;;;;;;;4.80;3.70;;;16.90;96.20;;;;;;4991888;28;20812;-63
2023/06/15 04:37:13;;;;;;;3.20;3.00;;;17.00;95.40;;;;;;4994473;28;20415;-63
2023/06/15 04:39:39;;;;;;;3.57;2.50;;;17.10;94.30;;;;;;4994402;28;20502;-62
2023/06/15 04:42:08;;;;;;;2.97;2.50;;;17.20;93.70;;;;;;4994150;28;20487;-62
2023/06/15 04:44:34;;;;;;;3.70;3.40;;;17.20;93.60;;;;;;4993689;28;20545;-61
2023/06/15 04:47:00;;;;;;;3.50;3.23;;;17.30;94.20;;;;;;4994116;28;20538;-64
2023/06/15 04:49:26;;;;;;;2.93;2.73;;;17.30;94.00;;;;;;4994233;28;20407;-63
2023/06/15 04:51:55;;;;;;;3.20;2.90;;;17.30;93.70;;;;;;4994209;28;20638;-61
2023/06/15 04:54:20;;;;;;;3.73;3.43;;;17.40;93.60;;;;;;4993865;28;20555;-64
2023/06/15 04:56:46;;;;;;;4.17;3.77;;;17.40;93.50;;;;;;4994040;28;20396;-63
2023/06/15 04:59:12;;;;;;;2.83;2.63;;;17.40;93.40;;;;;;4994089;28;20176;-63
2023/06/15 05:01:37;;;;;;;3.83;3.53;;;17.40;93.00;;;;;;4992836;28;20269;-63
2023/06/15 05:04:03;;;;;;;3.37;3.07;;;17.40;93.10;;;;;;4993355;28;20169;-64
2023/06/15 05:06:29;;;;;;;3.63;3.33;;;17.40;93.40;;;;;;4993664;28;20235;-62
2023/06/15 05:08:57;;;;;;;3.90;3.53;;;17.40;93.50;;;;;;4994057;28;20177;-64
2023/06/15 05:11:22;;;;;;;3.87;3.47;;;17.40;93.00;;;;;;4994199;28;20173;-63
2023/06/15 05:13:48;;;;;;;4.20;3.80;;;17.50;93.40;;;;;;4994168;28;20406;-62
2023/06/15 05:16:14;;;;;;;3.27;2.97;;;17.50;93.30;;;;;;4993950;28;20227;-61
2023/06/15 05:18:39;;;;;;;3.53;3.23;;;17.60;93.20;;;;;;4993742;28;20181;-69
2023/06/15 05:21:05;;;;;;;3.00;2.80;;;17.60;92.80;;;;;;4993988;28;20289;-67
2023/06/15 05:23:31;;;;;;;3.30;3.00;;;17.70;92.40;;;;;;4993638;28;20256;-65
2023/06/15 05:25:58;;;;;;;3.80;3.50;;;17.80;91.70;;;;;;4993679;28;20536;-67
2023/06/15 05:28:24;;;;;;;2.77;2.57;;;17.80;91.30;;;;;;4993835;28;20403;-64
2023/06/15 05:30:50;;;;;;;3.47;3.17;;;17.90;91.50;;;;;;4993920;28;20738;-68
2023/06/15 05:33:17;;;;;;;3.40;3.10;;;18.10;91.60;;;;;;4993616;28;20780;-62
2023/06/15 05:35:46;;;;;;;3.13;2.87;;;18.30;90.80;;;;;;4993699;28;20789;-69
2023/06/15 05:38:11;;;;;;;3.77;3.07;;;18.70;90.80;;;;;;4981912;28;20426;-65
2023/06/15 05:40:37;;;;;;;2.90;2.70;;;19.30;90.10;;;;;;4973839;28;20499;-72
2023/06/15 05:43:03;;;;;;;3.07;2.77;;;19.70;88.20;;;;;;4974212;28;20172;-65
2023/06/15 05:45:30;;;;;;;3.00;2.80;;;20.00;87.50;;;;;;4973665;28;20332;-70
2023/06/15 05:47:55;;;;;;;2.80;2.60;;;20.20;85.30;;;;;;4972712;28;20530;-68
2023/06/15 05:50:21;;;;;;;2.83;2.63;;;20.10;83.90;;;;;;4973723;28;20411;-68
2023/06/15 05:52:46;;;;;;;3.07;2.80;;;20.00;84.40;;;;;;4973842;28;20289;-67
2023/06/15 05:55:12;;;;;;;2.63;2.43;;;19.90;84.60;;;;;;4973545;28;20235;-70
2023/06/15 05:57:38;;;;;;;3.10;2.90;;;19.80;83.70;;;;;;4974322;28;20179;-68
2023/06/15 06:00:04;;;;;;;2.97;2.77;;;19.50;84.40;;;;;;4974076;28;20458;-67
2023/06/15 06:02:30;;;;;;;3.30;3.00;;;19.50;85.80;;;;;;4974067;28;20173;-71
2023/06/15 06:04:56;;;;;;;2.83;2.63;;;19.40;86.40;;;;;;4973014;28;20455;-67
2023/06/15 06:07:23;;;;;;;2.53;2.33;;;19.40;86.60;;;;;;4973880;28;20423;-67
2023/06/15 06:09:49;;;;;;;3.60;3.30;;;19.40;86.10;;;;;;4973975;28;20535;-67
2023/06/15 06:12:15;;;;;;;4.07;3.77;;;19.50;86.40;;;;;;4973940;28;20486;-67
2023/06/15 06:14:40;;;;;;;2.60;2.50;;;19.50;86.80;;;;;;4973474;28;20665;-66
2023/06/15 06:17:07;;;;;;;2.80;2.60;;;19.60;87.20;;;;;;4975110;28;20408;-69
2023/06/15 06:19:32;;;;;;;3.40;3.10;;;19.70;86.60;;;;;;4977127;28;20252;-64
2023/06/15 06:21:58;;;;;;;2.77;2.57;;;19.80;87.50;;;;;;4993308;28;20848;-66
2023/06/15 06:24:23;;;;;;;3.57;3.27;;;19.80;87.60;;;;;;4996144;28;20195;-65
2023/06/15 06:26:49;;;;;;;3.00;2.70;;;19.90;87.80;;;;;;4996839;28;20637;-65
2023/06/15 06:29:15;;;;;;;2.90;2.70;;;20.00;87.30;;;;;;4996614;28;20258;-69
2023/06/15 06:31:42;;;;;;;2.50;2.40;;;20.20;86.30;;;;;;4996633;28;20163;-64
2023/06/15 06:34:08;;;;;;;3.00;2.80;;;20.30;86.60;;;;;;4996405;28;20176;-65
2023/06/15 06:36:33;;;;;;;3.43;3.23;;;20.30;86.30;;;;;;4996443;28;20426;-67
2023/06/15 06:38:59;;;;;;;2.80;2.60;;;20.30;86.30;;;;;;4996396;28;20657;-68
2023/06/15 06:41:25;;;;;;;3.23;3.03;;;20.20;85.80;;;;;;4996446;28;20171;-67
2023/06/15 06:43:52;;;;;;;2.53;2.33;;;20.20;87.00;;;;;;4996094;28;20168;-69
2023/06/15 06:46:17;;;;;;;3.20;3.00;;;20.20;87.00;;;;;;4996163;28;20462;-63
2023/06/15 06:48:43;;;;;;;2.93;2.73;;;20.20;87.10;;;;;;4996288;28;20419;-65
2023/06/15 06:51:08;;;;;;;3.20;3.00;;;20.20;86.60;;;;;;4996413;28;20175;-65
2023/06/15 06:53:36;;;;;;;2.97;2.77;;;20.20;85.70;;;;;;4989442;28;20174;-69
2023/06/15 06:56:02;;;;;;;3.00;2.80;;;20.30;84.10;;;;;;4996135;28;20192;-66
2023/06/15 06:58:28;;;;;;;2.67;2.47;;;20.40;84.30;;;;;;4974825;28;20416;-64
2023/06/15 07:00:53;;;;;;;3.63;3.33;;;20.40;85.40;;;;;;4974442;28;20500;-66
2023/06/15 07:03:20;;;;;;;3.53;2.73;;;20.40;86.00;;;;;;4994512;28;20203;-68
2023/06/15 07:05:46;;;;;;;2.40;2.27;;;20.60;85.80;;;;;;4995276;28;20234;-63
2023/06/15 07:08:12;;;;;;;3.13;2.93;;;20.60;85.00;;;;;;4995238;28;20454;-64
2023/06/15 07:10:39;;;;;;;3.60;3.30;;;20.80;84.10;;;;;;4995999;28;20853;-67
2023/06/15 07:13:04;;;;;;;3.27;3.00;;;21.00;83.80;;;;;;4995797;28;20438;-63
2023/06/15 07:15:31;;;;;;;3.20;2.80;;;21.10;83.10;;;;;;4995414;28;20539;-68
2023/06/15 07:17:57;;;;;;;2.87;2.67;;;21.20;83.50;;;;;;4995144;28;20230;-66
2023/06/15 07:20:23;;;;;;;3.00;2.73;;;21.30;82.60;;;;;;4995697;28;20415;-68
2023/06/15 07:22:49;;;;;;;3.00;2.80;;;21.40;83.30;;;;;;4994368;28;20445;-65
2023/06/15 07:25:14;;;;;;;3.07;2.87;;;21.60;82.90;;;;;;4995150;28;20667;-65
2023/06/15 07:27:40;;;;;;;3.17;2.70;;;22.00;83.40;;;;;;4995292;28;20179;-68
2023/06/15 07:30:06;;;;;;;3.20;3.00;;;22.50;82.10;;;;;;4995481;28;20194;-65
2023/06/15 07:32:31;;;;;;;3.03;2.73;;;23.10;80.50;;;;;;4995708;28;20167;-67
2023/06/15 07:34:57;;;;;;;2.37;2.27;;;23.60;78.30;;;;;;4993884;28;20456;-64
2023/06/15 07:37:22;;;;;;;2.90;2.70;;;24.30;76.70;;;;;;4995542;28;20210;-68
2023/06/15 07:39:48;;;;;;;2.90;2.70;;;25.00;75.30;;;;;;4995442;28;20618;-66
2023/06/15 07:42:14;;;;;;;3.33;3.07;;;26.00;72.00;;;;;;4995047;28;20191;-68
2023/06/15 07:44:39;;;;;;;3.63;3.33;;;27.10;68.80;;;;;;4994662;28;20207;-65
2023/06/15 07:47:07;;;;;;;4.00;3.70;;;28.20;65.90;;;;;;4995480;28;20303;-64
2023/06/15 07:49:33;;;;;;;4.63;4.23;;;29.30;63.00;;;;;;4995544;28;20182;-64
2023/06/15 07:51:58;;;;;;;4.13;3.83;;;30.40;60.60;;;;;;4995087;28;20382;-66
2023/06/15 07:54:24;;;;;;;4.27;3.90;;;30.90;58.70;;;;;;4994882;28;20195;-63
2023/06/15 07:56:50;;;;;;;4.97;4.67;;;31.20;57.50;;;;;;4994982;28;20175;-66
2023/06/15 07:59:16;;;;;;;4.40;4.10;;;31.50;55.90;;;;;;4995050;28;20187;-68
2023/06/15 08:01:41;;;;;;;4.20;3.93;;;31.90;55.70;;;;;;4995213;28;20629;-66
2023/06/15 08:04:07;;;;;;;3.53;3.33;;;32.70;55.10;;;;;;4994520;28;20241;-68
2023/06/15 08:06:33;;;;;;;3.77;3.50;;;33.50;53.90;;;;;;4993703;28;20213;-68
2023/06/15 08:08:59;;;;;;;3.47;3.20;;;34.00;53.20;;;;;;4994987;28;20493;-68
2023/06/15 08:11:26;;;;;;;3.73;3.53;;;34.20;51.70;;;;;;4994894;28;20690;-64
2023/06/15 08:13:51;;;;;;;3.00;2.80;;;34.10;51.70;;;;;;4994434;28;20262;-68
2023/06/15 08:16:17;;;;;;;3.93;3.63;;;33.90;52.10;;;;;;4994888;28;20458;-65
2023/06/15 08:18:43;;;;;;;4.13;3.83;;;33.90;52.10;;;;;;4994796;28;20215;-68
2023/06/15 08:21:08;;;;;;;3.93;3.63;;;34.20;52.70;;;;;;4994482;28;20661;-64
2023/06/15 08:23:34;;;;;;;3.97;3.77;;;34.50;51.40;;;;;;4994755;28;20179;-65
2023/06/15 08:25:59;;;;;;;3.87;3.67;;;34.60;51.40;;;;;;4994370;28;20211;-67
2023/06/15 08:28:25;;;;;;;3.40;3.20;;;34.60;50.80;;;;;;4994571;28;20179;-65
2023/06/15 08:30:51;;;;;;;4.30;4.00;;;34.60;50.90;;;;;;4994685;28;20570;-67
2023/06/15 08:33:18;;;;;;;4.27;3.97;;;34.70;50.80;;;;;;4994227;28;20253;-64
2023/06/15 08:35:44;;;;;;;3.87;3.67;;;35.40;50.90;;;;;;4994299;28;20206;-67
2023/06/15 08:38:09;;;;;;;4.10;3.90;;;35.70;49.30;;;;;;4994555;28;20418;-64
2023/06/15 08:40:35;;;;;;;3.53;3.33;;;35.60;49.50;;;;;;4993776;28;20411;-67
2023/06/15 08:43:03;;;;;;;3.87;3.67;;;35.50;48.30;;;;;;4994326;28;20534;-64
2023/06/15 08:45:38;;;;;;;4.47;4.17;;;35.50;48.10;;;;;;4993309;28;20227;-65
2023/06/15 08:48:05;;;;;;;3.70;3.50;;;35.30;48.00;;;;;;4976463;28;20415;-67
2023/06/15 08:50:31;;;;;;;3.60;3.30;;;35.10;47.70;;;;;;4991676;28;20435;-67
2023/06/15 08:52:57;;;;;;;4.10;3.80;;;34.70;47.90;;;;;;4993457;28;20805;-67
2023/06/15 08:55:24;;;;;;;3.73;3.53;;;34.80;48.40;;;;;;4993659;28;20445;-64
2023/06/15 08:57:50;;;;;;;4.27;4.03;;;34.70;47.90;;;;;;4994001;28;20419;-64
2023/06/15 09:00:16;;;;;;;5.50;3.63;;;34.80;48.90;;;;;;4993895;28;20521;-66
2023/06/15 09:02:43;;;;;;;3.57;3.37;;;35.00;48.20;;;;;;4993976;28;20183;-64
2023/06/15 09:05:09;;;;;;;3.80;3.60;;;35.40;47.30;;;;;;4993427;28;20885;-66
2023/06/15 09:07:35;;;;;;;3.40;3.20;;;35.60;47.00;;;;;;4993977;28;20442;-63
2023/06/15 09:10:16;;;;;;;3.87;3.67;;;35.80;46.30;;;;;;4994066;28;20179;-64
2023/06/15 09:12:53;;;;;;;3.97;3.67;;;35.90;46.00;;;;;;4993517;28;20517;-62
2023/06/15 09:15:27;;;;;;;4.43;4.13;;;35.60;46.60;;;;;;4993098;28;20513;-63
2023/06/15 09:17:54;;;;;;;5.97;4.00;;;35.60;47.50;;;;;;4993904;28;20446;-60
2023/06/15 09:20:22;;;;;;;3.30;3.10;;;35.60;46.50;;;;;;4993870;28;20422;-63
2023/06/15 09:22:48;;;;;;;3.70;3.50;;;35.60;46.80;;;;;;4993852;28;20462;-61
2023/06/15 09:25:21;;;;;;;3.77;3.47;;;35.80;46.30;;;;;;4993252;28;20478;-61
2023/06/15 09:27:54;;;;;;;3.80;3.50;;;35.90;46.80;;;;;;4993846;28;20434;-59
2023/06/15 09:30:21;;;;;;;3.50;3.30;;;36.00;45.40;;;;;;4993902;28;20422;-64
2023/06/15 09:32:47;;;;;;;3.27;3.07;;;35.90;45.20;;;;;;4993795;28;20790;-61
2023/06/15 09:35:13;;;;;;;3.73;3.50;;;35.70;46.00;;;;;;4993322;28;20434;-59
2023/06/15 09:37:39;;;;;;;3.50;3.30;;;35.70;45.90;;;;;;4993631;28;20188;-62
2023/06/15 09:40:07;;;;;;;3.50;3.30;;;35.80;44.90;;;;;;4993427;28;20207;-65
2023/06/15 09:42:35;;;;;;;3.73;3.53;;;35.70;44.90;;;;;;4988391;28;20422;-63
2023/06/15 09:45:03;;;;;;;4.17;3.47;;;35.30;44.60;;;;;;4993384;28;20514;-65
2023/06/15 09:47:30;;;;;;;3.43;3.20;;;34.70;44.40;;;;;;4993700;28;20469;-62
2023/06/15 09:49:55;;;;;;;3.30;3.10;;;33.60;45.30;;;;;;4993563;28;21023;-65
2023/06/15 09:52:21;;;;;;;3.57;3.27;;;32.70;45.60;;;;;;4996967;28;20443;-62
2023/06/15 09:54:47;;;;;;;3.27;3.07;;;31.90;46.50;;;;;;4996464;28;20277;-64
2023/06/15 09:57:18;;;;;;;3.10;2.90;;;31.90;47.70;;;;;;4996346;28;20183;-64
2023/06/15 09:59:48;;;;;;;2.90;2.67;;;32.30;47.10;;;;;;4977883;28;20412;-65
2023/06/15 10:02:16;;;;;;;2.80;2.70;;;32.50;45.60;;;;;;4977691;28;20411;-63
2023/06/15 10:04:45;;;;;;;3.40;3.20;;;32.30;45.50;;;;;;4991580;28;20487;-63
2023/06/15 10:07:13;;;;;;;2.90;2.80;;;31.50;46.90;;;;;;4996261;28;20405;-63
2023/06/15 10:09:49;;;;;;;3.20;3.00;;;30.70;47.20;;;;;;4983663;28;20430;-64
2023/06/15 10:12:25;;;;;;;3.03;2.83;;;30.70;47.80;;;;;;4998406;28;20452;-65
2023/06/15 10:15:03;;;;;;;3.13;2.87;;;31.00;48.50;;;;;;4981862;28;20489;-62
2023/06/15 10:17:32;;;;;;;3.20;3.00;;;31.80;48.40;;;;;;4982963;28;20514;-65
2023/06/15 10:20:08;;;;;;;3.13;2.90;;;32.70;46.70;;;;;;4997198;28;20419;-65
2023/06/15 10:22:45;;;;;;;3.17;2.97;;;33.30;44.90;;;;;;4992856;28;20430;-63
2023/06/15 10:25:10;;;;;;;3.20;2.90;;;33.60;44.20;;;;;;4977045;28;20427;-65
2023/06/15 10:27:36;;;;;;;3.00;2.80;;;33.90;44.40;;;;;;4977490;28;20495;-65
2023/06/15 10:30:08;;;;;;;2.50;2.40;;;34.30;44.50;;;;;;4977513;28;20538;-62
2023/06/15 10:32:39;;;;;;;3.30;3.10;;;34.50;43.10;;;;;;4985189;28;20434;-62
2023/06/15 10:35:12;;;;;;;3.10;2.90;;;34.10;43.30;;;;;;4992057;28;20467;-64
2023/06/15 10:37:48;;;;;;;3.07;2.87;;;33.40;44.00;;;;;;4994414;28;20427;-62
2023/06/15 10:40:36;;;;;;;3.50;3.30;;;32.90;44.90;;;;;;4996472;28;20407;-64
2023/06/15 10:43:02;;;;;;;3.53;3.23;;;32.50;45.90;;;;;;4994478;28;20921;-59
2023/06/15 10:45:34;;;;;;;3.60;3.30;;;31.70;47.50;;;;;;4995976;28;20433;-61
2023/06/15 10:48:03;;;;;;;3.20;3.00;;;30.70;49.20;;;;;;4981186;28;20527;-61
2023/06/15 10:50:43;;;;;;;3.70;3.40;;;30.00;49.60;;;;;;4996238;28;20389;-63
2023/06/15 10:53:25;;;;;;;2.80;2.60;;;29.00;51.10;;;;;;4995315;28;20495;-61
2023/06/15 10:55:58;;;;;;;2.73;2.53;;;28.40;51.30;;;;;;4996075;28;20456;-61
2023/06/15 10:58:26;;;;;;;4.07;3.77;;;28.10;51.50;;;;;;4996444;28;20381;-60
2023/06/15 11:01:16;;;;;;;3.23;2.90;;;27.70;52.50;;;;;;4996039;28;20457;-62
2023/06/15 11:03:42;;;;;;;3.70;3.40;;;27.50;52.10;;;;;;4995288;28;20743;-61
2023/06/15 11:06:18;;;;;;;3.03;2.80;;;27.20;52.30;;;;;;4995670;28;20436;-61
2023/06/15 11:09:01;;;;;;;3.38;3.08;;;26.80;52.70;;;;;;4990236;28;20431;-65
2023/06/15 11:11:35;;;;;;;3.00;2.80;;;26.60;52.90;;;;;;4995969;28;20182;-60
2023/06/15 11:14:05;;;;;;;3.30;3.10;;;26.60;53.40;;;;;;4995678;28;20743;-61
2023/06/15 11:16:32;;;;;;;2.80;2.60;;;26.60;53.70;;;;;;4995963;28;20501;-60
2023/06/15 11:19:22;;;;;;;3.20;2.00;;;26.60;54.00;;;;;;4995649;28;20454;-61
2023/06/15 11:22:04;;;;;;;2.67;2.47;;;26.70;54.70;;;;;;4986486;28;20513;-61
2023/06/15 11:24:34;;;;;;;5.50;2.87;;;26.70;54.60;;;;;;4995129;28;20440;-61
2023/06/15 11:27:09;;;;;;;3.00;2.80;;;26.70;54.70;;;;;;4995830;28;20757;-61
2023/06/15 11:29:41;;;;;;;2.80;2.60;;;26.70;55.10;;;;;;4994313;28;20508;-60
2023/06/15 11:32:09;;;;;;;3.00;2.80;;;27.00;55.40;;;;;;4995813;28;20380;-61
2023/06/15 11:34:36;;;;;;;3.20;3.00;;;27.10;52.70;;;;;;4995196;28;20409;-64
2023/06/15 11:37:03;;;;;;;2.73;2.50;;;27.00;52.20;;;;;;4995295;28;20795;-60
2023/06/15 11:39:30;;;;;;;2.90;2.70;;;27.10;53.10;;;;;;4986514;28;20420;-60
2023/06/15 11:41:57;;;;;;;2.67;2.47;;;27.40;52.70;;;;;;4974885;28;20416;-61
2023/06/15 11:44:27;;;;;;;2.50;2.30;;;27.40;51.10;;;;;;4975591;28;20928;-60
2023/06/15 11:46:58;;;;;;;3.50;3.30;;;27.20;50.30;;;;;;4976076;28;20406;-60
2023/06/15 11:49:30;;;;;;;2.27;2.17;;;26.90;51.70;;;;;;4984002;28;20426;-60
2023/06/15 11:51:56;;;;;;;2.13;2.03;;;26.90;52.20;;;;;;4995121;28;20457;-60
2023/06/15 11:54:26;;;;;;;2.60;2.40;;;26.90;52.10;;;;;;4990186;28;20855;-62
2023/06/15 11:56:51;;;;;;;3.67;3.37;;;26.90;51.90;;;;;;4975768;28;20523;-60
2023/06/15 11:59:19;;;;;;;2.90;2.70;;;26.80;52.30;;;;;;4975494;28;20406;-60
2023/06/15 12:01:45;;;;;;;2.80;2.60;;;26.80;51.70;;;;;;4975640;28;20175;-61
2023/06/15 12:04:20;;;;;;;2.20;2.10;;;26.70;51.20;;;;;;4989506;28;20757;-60
2023/06/15 12:06:46;;;;;;;2.67;2.57;;;26.50;51.00;;;;;;4994920;28;20923;-60
2023/06/15 12:09:13;;;;;;;2.37;2.27;;;26.40;51.90;;;;;;4994725;28;20455;-60
2023/06/15 12:11:38;;;;;;;2.80;2.60;;;26.30;52.90;;;;;;4994394;28;20760;-61
2023/06/15 12:14:09;;;;;;;2.77;2.50;;;26.20;53.90;;;;;;4993389;28;20400;-62
2023/06/15 12:16:38;;;;;;;2.63;2.17;;;26.30;53.40;;;;;;4993309;28;20700;-60
2023/06/15 12:19:08;;;;;;;2.37;2.27;;;26.50;51.90;;;;;;4994193;28;20483;-61
2023/06/15 12:21:38;;;;;;;2.53;2.33;;;26.70;52.50;;;;;;4994960;28;20414;-60
2023/06/15 12:24:17;;;;;;;2.57;2.37;;;26.80;50.70;;;;;;4994213;28;20392;-62
2023/06/15 12:27:15;;;;;;;2.77;2.57;;;26.90;50.90;;;;;;4994846;28;20450;-61
2023/06/15 12:29:41;;;;;;;3.00;2.80;;;27.00;50.90;;;;;;4994171;28;20433;-61
2023/06/15 12:32:07;;;;;;;3.13;2.93;;;27.00;53.10;;;;;;4994311;28;20433;-61
2023/06/15 12:34:33;;;;;;;3.00;2.80;;;27.20;53.80;;;;;;4993751;28;20276;-61
2023/06/15 12:37:01;;;;;;;2.57;2.47;;;27.40;53.00;;;;;;4994667;28;20261;-60
2023/06/15 12:39:27;;;;;;;3.60;3.20;;;27.60;51.90;;;;;;4994608;28;20460;-61
2023/06/15 12:42:00;;;;;;;2.53;2.30;;;27.70;52.60;;;;;;4994490;28;20412;-61
2023/06/15 12:44:26;;;;;;;2.80;2.60;;;27.90;53.20;;;;;;4993896;28;20513;-61
2023/06/15 12:46:51;;;;;;;3.57;2.80;;;27.90;51.00;;;;;;4994492;28;20441;-60
2023/06/15 12:49:17;;;;;;;2.73;2.53;;;27.90;51.00;;;;;;4992710;28;20167;-62
2023/06/15 12:51:46;;;;;;;2.90;2.50;;;28.00;50.20;;;;;;4994425;28;20242;-61
2023/06/15 12:54:12;;;;;;;4.10;3.80;;;27.80;50.30;;;;;;4992582;28;20182;-60
2023/06/15 12:56:37;;;;;;;2.90;2.70;;;27.60;50.50;;;;;;4994114;28;20491;-60
2023/06/15 12:59:03;;;;;;;3.30;3.10;;;27.40;50.70;;;;;;4994301;28;20253;-60
2023/06/15 13:01:29;;;;;;;3.43;3.00;;;27.20;50.90;;;;;;4994312;28;20182;-62
2023/06/15 13:03:56;;;;;;;3.40;3.20;;;27.00;51.30;;;;;;4993323;28;20778;-62
2023/06/15 13:06:21;;;;;;;3.03;2.70;;;26.70;51.40;;;;;;4993589;28;20415;-60
2023/06/15 13:08:47;;;;;;;3.07;2.77;;;26.50;51.60;;;;;;4992494;28;20397;-60
2023/06/15 13:11:12;;;;;;;3.10;2.90;;;26.20;51.80;;;;;;4994052;28;20175;-60
2023/06/15 13:13:38;;;;;;;2.67;2.57;;;26.00;52.70;;;;;;4993586;28;20169;-60
2023/06/15 13:16:04;;;;;;;2.67;2.47;;;25.80;54.00;;;;;;4993922;28;20257;-61
2023/06/15 13:18:30;;;;;;;3.00;2.80;;;25.60;53.70;;;;;;4993553;28;20179;-61
2023/06/15 13:20:57;;;;;;;2.63;2.50;;;25.60;53.60;;;;;;4993812;28;20853;-60
2023/06/15 13:23:23;;;;;;;2.67;2.47;;;25.60;54.00;;;;;;4992259;28;20563;-59
2023/06/15 13:25:49;;;;;;;2.60;2.40;;;25.60;53.20;;;;;;4994746;28;20481;-60
2023/06/15 13:28:14;;;;;;;2.87;2.57;;;25.80;52.30;;;;;;4997748;28;20454;-59
2023/06/15 13:30:40;;;;;;;2.20;2.10;;;26.00;52.10;;;;;;4997777;28;20183;-60
2023/06/15 13:33:05;;;;;;;2.63;2.50;;;26.10;52.20;;;;;;4997382;28;20183;-61
2023/06/15 13:35:31;;;;;;;2.97;2.77;;;26.30;52.30;;;;;;4997337;28;20203;-60
2023/06/15 13:37:58;;;;;;;2.90;2.70;;;26.50;53.30;;;;;;4997698;28;20171;-60
2023/06/15 13:40:24;;;;;;;2.83;2.63;;;26.60;53.20;;;;;;4997818;28;20168;-60
2023/06/15 13:42:50;;;;;;;3.10;2.90;;;26.60;52.70;;;;;;4997742;28;20398;-61
2023/06/15 13:45:17;;;;;;;3.47;3.17;;;26.70;52.70;;;;;;4997379;28;20445;-59
2023/06/15 13:47:44;;;;;;;2.20;2.10;;;26.60;52.70;;;;;;4997188;28;20533;-60
2023/06/15 13:50:12;;;;;;;2.60;2.40;;;26.50;52.90;;;;;;4997528;28;20389;-61
2023/06/15 13:52:38;;;;;;;1.87;1.77;;;26.30;53.40;;;;;;4996736;28;20431;-62
2023/06/15 13:55:04;;;;;;;2.60;2.40;;;26.20;53.10;;;;;;4996996;28;20517;-60
2023/06/15 13:57:30;;;;;;;2.00;1.90;;;26.20;53.30;;;;;;4997390;28;20409;-61
2023/06/15 13:59:55;;;;;;;2.30;2.07;;;26.20;53.10;;;;;;4997548;28;20762;-61
2023/06/15 14:02:21;;;;;;;2.70;2.50;;;26.10;53.60;;;;;;4997514;28;20638;-61
2023/06/15 14:04:47;;;;;;;2.37;2.17;;;26.00;53.90;;;;;;4996689;28;20677;-60
2023/06/15 14:07:13;;;;;;;2.47;2.37;;;25.90;53.50;;;;;;4997430;28;20176;-61
2023/06/15 14:09:40;;;;;;;2.40;2.30;;;25.90;53.00;;;;;;4997283;28;20571;-61
2023/06/15 14:12:06;;;;;;;2.83;2.63;;;25.70;53.60;;;;;;4991680;28;20427;-60
2023/06/15 14:14:32;;;;;;;2.57;2.33;;;25.70;54.10;;;;;;4993675;28;20783;-61
2023/06/15 14:16:58;;;;;;;2.50;2.30;;;25.60;53.70;;;;;;4995648;28;20506;-59
2023/06/15 14:19:25;;;;;;;1.87;1.77;;;25.60;53.80;;;;;;4995359;28;20183;-62
2023/06/15 14:21:51;;;;;;;2.67;2.47;;;25.50;53.40;;;;;;4995780;28;20642;-61
2023/06/15 14:24:17;;;;;;;2.83;2.63;;;25.50;53.60;;;;;;4995106;28;20983;-62
2023/06/15 14:26:43;;;;;;;2.10;2.00;;;25.50;53.80;;;;;;4995780;28;20410;-62
2023/06/15 14:29:12;;;;;;;2.37;2.17;;;25.50;55.30;;;;;;4996930;28;20732;-67
2023/06/15 14:31:41;;;;;;;1.87;1.77;;;25.50;53.70;;;;;;4996576;28;20423;-62
2023/06/15 14:34:07;;;;;;;2.10;2.00;;;25.50;53.50;;;;;;4994716;28;20592;-63
2023/06/15 14:36:33;;;;;;;1.93;1.83;;;25.40;53.30;;;;;;4996765;28;20458;-62
2023/06/15 14:38:58;;;;;;;2.30;2.20;;;25.40;53.50;;;;;;4995537;28;20418;-64
2023/06/15 14:41:24;;;;;;;2.00;1.90;;;25.40;52.50;;;;;;4996387;28;20631;-63
2023/06/15 14:43:50;;;;;;;1.57;1.47;;;25.50;52.50;;;;;;4996078;28;20176;-64
2023/06/15 14:46:16;;;;;;;3.87;2.10;;;25.60;52.80;;;;;;4996595;28;20196;-62
2023/06/15 14:48:42;;;;;;;2.50;2.30;;;25.60;53.20;;;;;;4995986;28;20469;-65
2023/06/15 14:51:07;;;;;;;2.70;2.50;;;25.70;52.50;;;;;;4996378;28;20183;-62
2023/06/15 14:53:33;;;;;;;1.97;1.83;;;25.70;52.50;;;;;;4995396;28;20191;-62
2023/06/15 14:55:59;;;;;;;2.23;2.13;;;25.60;52.70;;;;;;4995881;28;20454;-62
2023/06/15 14:58:25;;;;;;;2.10;2.00;;;25.60;52.20;;;;;;4995431;28;20249;-61
2023/06/15 15:00:51;;;;;;;2.60;2.40;;;25.60;52.10;;;;;;4996182;28;20901;-62
2023/06/15 15:03:16;;;;;;;1.97;1.87;;;25.50;51.70;;;;;;4995684;28;20183;-63
2023/06/15 15:05:42;;;;;;;2.30;1.87;;;25.50;52.00;;;;;;4995830;28;20689;-61
2023/06/15 15:08:08;;;;;;;2.60;2.40;;;25.50;51.80;;;;;;4995840;28;20654;-63
2023/06/15 15:10:34;;;;;;;1.67;1.57;;;25.30;51.80;;;;;;4993632;28;20426;-64
2023/06/15 15:12:59;;;;;;;2.23;2.03;;;25.30;51.50;;;;;;4976289;28;20176;-63
2023/06/15 15:15:25;;;;;;;2.10;1.90;;;25.30;51.60;;;;;;4975743;28;20211;-63
2023/06/15 15:17:52;;;;;;;2.40;2.20;;;25.30;51.50;;;;;;4975819;28;20177;-64
2023/06/15 15:20:17;;;;;;;1.80;1.70;;;25.20;52.50;;;;;;4976300;28;20582;-64
2023/06/15 15:22:43;;;;;;;1.70;1.60;;;25.20;52.30;;;;;;4976062;28;20411;-65
2023/06/15 15:25:09;;;;;;;1.80;1.73;;;25.20;51.80;;;;;;4983982;28;20254;-63
2023/06/15 15:27:35;;;;;;;2.23;1.90;;;25.20;51.20;;;;;;4995229;28;20183;-65
2023/06/15 15:30:00;;;;;;;2.00;1.90;;;25.30;50.90;;;;;;4991298;28;20423;-64
2023/06/15 15:32:26;;;;;;;1.87;1.77;;;25.20;50.70;;;;;;4992547;28;20182;-64
2023/06/15 15:34:51;;;;;;;1.57;1.47;;;25.30;50.80;;;;;;4994952;28;20260;-66
2023/06/15 15:37:17;;;;;;;2.07;1.90;;;25.20;50.60;;;;;;4993409;28;20206;-66
2023/06/15 15:39:43;;;;;;;1.50;1.40;;;25.20;50.80;;;;;;4992643;28;20175;-67
2023/06/15 15:42:09;;;;;;;1.97;1.87;;;25.20;52.30;;;;;;4994855;28;20176;-64
2023/06/15 15:44:34;;;;;;;1.50;1.40;;;25.30;50.30;;;;;;4987984;28;20679;-65
2023/06/15 15:47:00;;;;;;;1.90;1.80;;;25.30;50.30;;;;;;4995150;28;20443;-64
2023/06/15 15:49:26;;;;;;;2.23;1.97;;;25.30;49.50;;;;;;4994700;28;20262;-65
2023/06/15 15:51:51;;;;;;;1.70;1.60;;;25.30;48.60;;;;;;4994813;28;20417;-67
2023/06/15 15:54:17;;;;;;;1.50;1.40;;;25.30;49.30;;;;;;4994008;28;20598;-63
2023/06/15 15:56:42;;;;;;;2.17;2.07;;;25.30;49.70;;;;;;4994906;28;20214;-68
2023/06/15 15:59:08;;;;;;;1.70;1.60;;;25.20;49.40;;;;;;4994737;28;20213;-68
2023/06/15 16:01:34;;;;;;;1.80;1.70;;;25.20;49.40;;;;;;4994631;28;20172;-67
2023/06/15 16:04:02;;;;;;;2.00;1.70;;;25.20;49.20;;;;;;4976630;28;20646;-65
2023/06/15 16:06:27;;;;;;;1.80;1.70;;;25.20;49.40;;;;;;4974111;28;20188;-64
2023/06/15 16:08:53;;;;;;;1.67;1.57;;;25.10;48.70;;;;;;4975343;28;20426;-62
2023/06/15 16:11:19;;;;;;;1.47;1.37;;;25.10;48.80;;;;;;4988931;28;20641;-63
2023/06/15 16:13:46;;;;;;;1.83;1.57;;;25.10;49.00;;;;;;4992507;28;20190;-64
2023/06/15 16:16:12;;;;;;;1.60;1.50;;;25.10;48.70;;;;;;4994537;28;20699;-67
2023/06/15 16:18:37;;;;;;;2.30;1.90;;;25.00;48.70;;;;;;4994894;28;20411;-66
2023/06/15 16:21:03;;;;;;;1.80;1.70;;;25.00;48.50;;;;;;4990387;28;20200;-64
2023/06/15 16:23:28;;;;;;;1.80;1.70;;;25.00;48.90;;;;;;4994213;28;20218;-65
2023/06/15 16:25:54;;;;;;;9.60;2.07;;;24.90;48.50;;;;;;4993411;28;20206;-66
2023/06/15 16:28:20;;;;;;;1.70;1.60;;;24.90;48.50;;;;;;4993916;28;20182;-64
2023/06/15 16:30:46;;;;;;;1.60;1.50;;;24.90;48.50;;;;;;4994208;28;20957;-66
2023/06/15 16:33:11;;;;;;;2.20;2.10;;;24.80;48.30;;;;;;4993908;28;20184;-67
2023/06/15 16:35:37;;;;;;;1.90;1.70;;;24.80;48.70;;;;;;4994013;28;20278;-65
2023/06/15 16:38:02;;;;;;;1.37;1.33;;;24.80;49.40;;;;;;4994061;28;20176;-64
2023/06/15 16:40:28;;;;;;;1.20;1.20;;;24.80;48.30;;;;;;4994457;28;20639;-66
2023/06/15 16:42:54;;;;;;;1.77;1.67;;;24.70;48.30;;;;;;4994252;28;20714;-65
2023/06/15 16:45:20;;;;;;;1.63;1.53;;;24.70;49.30;;;;;;4993796;28;20258;-64
2023/06/15 16:47:45;;;;;;;1.67;1.57;;;24.70;49.80;;;;;;4992901;28;20203;-63
2023/06/15 16:50:12;;;;;;;2.33;2.10;;;24.70;50.20;;;;;;4994136;28;20183;-66
2023/06/15 16:52:41;;;;;;;1.60;1.50;;;24.60;50.40;;;;;;4993664;28;20645;-64